ASL348 LYBE-EDDS
Flight info
| Callsign | ASL348 |
|---|---|
| Flight time | 1h 30m |
| Altitude | 38000 |
| Route | TISAK L610 TONDO DCT ARSIN DCT SITNI DCT SBG DCT TITIG L173 MAH/N0383F240 L173 DODIL T127 TEKSI TEKSI1W |
| Aircraft | A319/M-SDE3FGHIRWY/LB1 |
Departure
| Time | 2026-05-04 09:31 |
|---|---|
| Airport | Belgrade Nikola Tesla Airport (LYBE) |
Arrival
| Time | 2026-05-04 11:02 |
|---|---|
| Airport | Stuttgart Airport (EDDS) |
| Time | Latitude | Longitude | Altitude | Speed | Heading |
|---|---|---|---|---|---|
| 2026-05-04 09:06 | 44.81934 | 20.29278 | 307 ft | 0 kts | 302° |
| 2026-05-04 09:20 | 44.81933 | 20.29281 | 307 ft | 3 kts | 302° |
| 2026-05-04 09:21 | 44.81922 | 20.29306 | 309 ft | 3 kts | 303° |
| 2026-05-04 09:21 | 44.81905 | 20.29333 | 306 ft | 4 kts | 333° |
| 2026-05-04 09:21 | 44.81883 | 20.29337 | 305 ft | 3 kts | 31° |
| 2026-05-04 09:21 | 44.81876 | 20.29331 | 306 ft | 0 kts | 32° |
| 2026-05-04 09:25 | 44.81879 | 20.29334 | 307 ft | 1 kts | 32° |
| 2026-05-04 09:25 | 44.81894 | 20.29347 | 307 ft | 3 kts | 32° |
| 2026-05-04 09:26 | 44.81930 | 20.29378 | 307 ft | 8 kts | 32° |
| 2026-05-04 09:26 | 44.81984 | 20.29425 | 309 ft | 10 kts | 32° |
| 2026-05-04 09:26 | 44.82048 | 20.29482 | 307 ft | 12 kts | 32° |
| 2026-05-04 09:26 | 44.82109 | 20.29526 | 307 ft | 9 kts | 10° |
| 2026-05-04 09:27 | 44.82162 | 20.29479 | 308 ft | 10 kts | 308° |
| 2026-05-04 09:27 | 44.82205 | 20.29387 | 310 ft | 12 kts | 302° |
| 2026-05-04 09:27 | 44.82253 | 20.29278 | 308 ft | 14 kts | 302° |
| 2026-05-04 09:27 | 44.82307 | 20.29156 | 309 ft | 16 kts | 302° |
| 2026-05-04 09:28 | 44.82356 | 20.29044 | 308 ft | 13 kts | 302° |
| 2026-05-04 09:28 | 44.82408 | 20.28929 | 307 ft | 14 kts | 304° |
| 2026-05-04 09:28 | 44.82471 | 20.28857 | 307 ft | 12 kts | 341° |
| 2026-05-04 09:28 | 44.82545 | 20.28888 | 308 ft | 8 kts | 35° |
| 2026-05-04 09:29 | 44.82553 | 20.28898 | 309 ft | 0 kts | 38° |
| 2026-05-04 09:29 | 44.82554 | 20.28899 | 309 ft | 1 kts | 39° |
| 2026-05-04 09:29 | 44.82569 | 20.28919 | 307 ft | 4 kts | 46° |
| 2026-05-04 09:29 | 44.82593 | 20.28965 | 308 ft | 7 kts | 59° |
| 2026-05-04 09:30 | 44.82614 | 20.29044 | 307 ft | 9 kts | 77° |
| 2026-05-04 09:30 | 44.82615 | 20.29135 | 306 ft | 9 kts | 95° |
| 2026-05-04 09:30 | 44.82588 | 20.29236 | 306 ft | 19 kts | 120° |
| 2026-05-04 09:30 | 44.82413 | 20.29631 | 308 ft | 76 kts | 122° |
| 2026-05-04 09:31 | 44.82032 | 20.30489 | 306 ft | 130 kts | 122° |
| 2026-05-04 09:31 | 44.81475 | 20.31744 | 446 ft | 161 kts | 123° |
| 2026-05-04 09:31 | 44.80886 | 20.33077 | 1067 ft | 161 kts | 122° |
| 2026-05-04 09:31 | 44.80302 | 20.34401 | 1679 ft | 165 kts | 122° |
| 2026-05-04 09:32 | 44.79656 | 20.35858 | 2050 ft | 187 kts | 122° |
| 2026-05-04 09:32 | 44.78929 | 20.37498 | 2339 ft | 209 kts | 122° |
| 2026-05-04 09:34 | 44.72767 | 20.51300 | 6012 ft | 245 kts | 122° |
| 2026-05-04 09:34 | 44.72082 | 20.53470 | 6011 ft | 245 kts | 99° |
| 2026-05-04 09:34 | 44.72206 | 20.55836 | 5999 ft | 246 kts | 71° |
| 2026-05-04 09:34 | 44.73175 | 20.57887 | 6011 ft | 265 kts | 41° |
| 2026-05-04 09:35 | 44.74839 | 20.59024 | 6007 ft | 272 kts | 12° |
| 2026-05-04 09:35 | 44.76723 | 20.59409 | 6005 ft | 274 kts | 11° |
| 2026-05-04 09:35 | 44.78581 | 20.60009 | 6005 ft | 274 kts | 15° |
| 2026-05-04 09:35 | 44.80420 | 20.60729 | 6003 ft | 274 kts | 17° |
| 2026-05-04 09:37 | 44.93215 | 20.60937 | 7506 ft | 284 kts | 332° |
| 2026-05-04 09:37 | 44.94950 | 20.59602 | 8433 ft | 285 kts | 333° |
| 2026-05-04 09:38 | 44.96695 | 20.58268 | 9392 ft | 286 kts | 334° |
| 2026-05-04 09:38 | 44.98446 | 20.56929 | 10298 ft | 287 kts | 335° |
| 2026-05-04 09:38 | 45.00209 | 20.55575 | 11087 ft | 290 kts | 335° |
| 2026-05-04 09:38 | 45.01964 | 20.54221 | 11851 ft | 293 kts | 335° |
| 2026-05-04 09:39 | 45.03763 | 20.52829 | 12610 ft | 297 kts | 335° |
| 2026-05-04 09:39 | 45.05583 | 20.51417 | 13372 ft | 300 kts | 335° |
| 2026-05-04 09:39 | 45.07429 | 20.49986 | 14111 ft | 304 kts | 335° |
| 2026-05-04 09:39 | 45.09294 | 20.48538 | 14784 ft | 307 kts | 335° |
| 2026-05-04 09:40 | 45.11171 | 20.47076 | 15478 ft | 310 kts | 335° |
| 2026-05-04 09:40 | 45.13067 | 20.45594 | 16164 ft | 312 kts | 335° |
| 2026-05-04 09:40 | 45.14975 | 20.44104 | 16853 ft | 315 kts | 335° |
| 2026-05-04 09:40 | 45.16899 | 20.42601 | 17544 ft | 317 kts | 335° |
| 2026-05-04 09:41 | 45.18808 | 20.41111 | 18203 ft | 319 kts | 334° |
| 2026-05-04 09:42 | 45.32707 | 20.30219 | 22293 ft | 333 kts | 334° |
| 2026-05-04 09:43 | 45.34712 | 20.28639 | 22843 ft | 335 kts | 334° |
| 2026-05-04 09:43 | 45.36758 | 20.27029 | 23383 ft | 338 kts | 334° |
| 2026-05-04 09:43 | 45.38818 | 20.25403 | 23902 ft | 340 kts | 334° |
| 2026-05-04 09:43 | 45.40891 | 20.23764 | 24366 ft | 342 kts | 333° |
| 2026-05-04 09:44 | 45.42859 | 20.21821 | 24778 ft | 350 kts | 323° |
| 2026-05-04 09:44 | 45.44679 | 20.19406 | 24895 ft | 364 kts | 319° |
| 2026-05-04 09:44 | 45.46541 | 20.16860 | 25014 ft | 377 kts | 319° |
| 2026-05-04 09:46 | 45.60514 | 19.97516 | 27266 ft | 411 kts | 319° |
| 2026-05-04 09:46 | 45.62571 | 19.94668 | 27666 ft | 413 kts | 319° |
| 2026-05-04 09:46 | 45.64639 | 19.91803 | 28059 ft | 415 kts | 318° |
| 2026-05-04 09:47 | 45.66714 | 19.88923 | 28447 ft | 417 kts | 318° |
| 2026-05-04 09:47 | 45.68771 | 19.86065 | 28840 ft | 419 kts | 318° |
| 2026-05-04 09:49 | 45.83606 | 19.65365 | 31209 ft | 431 kts | 318° |
| 2026-05-04 09:49 | 45.85723 | 19.62390 | 31495 ft | 433 kts | 318° |
| 2026-05-04 09:49 | 45.87877 | 19.59363 | 31781 ft | 434 kts | 318° |
| 2026-05-04 09:51 | 46.00776 | 19.41175 | 34032 ft | 429 kts | 317° |
| 2026-05-04 09:51 | 46.02901 | 19.38164 | 34402 ft | 428 kts | 317° |
| 2026-05-04 09:51 | 46.04984 | 19.35187 | 34691 ft | 428 kts | 316° |
| 2026-05-04 09:51 | 46.07033 | 19.32069 | 35002 ft | 429 kts | 314° |
| 2026-05-04 09:52 | 46.09017 | 19.28860 | 35315 ft | 429 kts | 313° |
| 2026-05-04 09:52 | 46.10961 | 19.25605 | 35624 ft | 428 kts | 312° |
| 2026-05-04 09:52 | 46.12891 | 19.22337 | 35930 ft | 428 kts | 312° |
| 2026-05-04 09:52 | 46.14824 | 19.19074 | 36229 ft | 428 kts | 312° |
| 2026-05-04 09:53 | 46.16765 | 19.15827 | 36520 ft | 427 kts | 313° |
| 2026-05-04 09:53 | 46.18717 | 19.12594 | 36805 ft | 427 kts | 313° |
| 2026-05-04 09:53 | 46.20677 | 19.09369 | 37060 ft | 427 kts | 313° |
| 2026-05-04 09:53 | 46.22611 | 19.06196 | 37299 ft | 427 kts | 313° |
| 2026-05-04 09:54 | 46.24574 | 19.02974 | 37571 ft | 427 kts | 312° |
| 2026-05-04 09:54 | 46.26532 | 18.99748 | 37839 ft | 427 kts | 312° |
| 2026-05-04 09:54 | 46.28486 | 18.96520 | 38082 ft | 427 kts | 312° |
| 2026-05-04 09:55 | 46.32379 | 18.90064 | 38145 ft | 425 kts | 312° |
| 2026-05-04 09:55 | 46.36254 | 18.83627 | 38148 ft | 424 kts | 312° |
| 2026-05-04 09:56 | 46.40097 | 18.77225 | 38140 ft | 424 kts | 312° |
| 2026-05-04 09:56 | 46.43957 | 18.70771 | 38148 ft | 424 kts | 312° |
| 2026-05-04 09:57 | 46.47812 | 18.64307 | 38146 ft | 424 kts | 312° |
| 2026-05-04 09:57 | 46.51665 | 18.57835 | 38143 ft | 424 kts | 312° |
| 2026-05-04 09:58 | 46.55520 | 18.51354 | 38140 ft | 424 kts | 312° |
| 2026-05-04 09:58 | 46.59345 | 18.44906 | 38139 ft | 424 kts | 311° |
| 2026-05-04 10:00 | 46.74697 | 18.18865 | 38139 ft | 423 kts | 311° |
| 2026-05-04 10:04 | 47.01429 | 17.72913 | 38123 ft | 425 kts | 310° |
| 2026-05-04 10:04 | 47.05246 | 17.66293 | 38120 ft | 425 kts | 310° |
| 2026-05-04 10:05 | 47.09060 | 17.59664 | 38119 ft | 425 kts | 310° |
| 2026-05-04 10:05 | 47.12845 | 17.53067 | 38112 ft | 425 kts | 310° |
| 2026-05-04 10:06 | 47.16653 | 17.46418 | 38114 ft | 425 kts | 310° |
| 2026-05-04 10:06 | 47.20455 | 17.39762 | 38116 ft | 425 kts | 310° |
| 2026-05-04 10:08 | 47.33681 | 17.16465 | 38113 ft | 424 kts | 309° |
| 2026-05-04 10:08 | 47.37448 | 17.09787 | 38113 ft | 424 kts | 309° |
| 2026-05-04 10:09 | 47.41214 | 17.03098 | 38112 ft | 423 kts | 309° |
| 2026-05-04 10:09 | 47.44941 | 16.96461 | 38111 ft | 422 kts | 309° |
| 2026-05-04 10:10 | 47.48682 | 16.89784 | 38106 ft | 421 kts | 309° |
| 2026-05-04 10:10 | 47.52413 | 16.83119 | 38103 ft | 420 kts | 308° |
| 2026-05-04 10:11 | 47.56049 | 16.76364 | 38100 ft | 419 kts | 302° |
| 2026-05-04 10:11 | 47.58520 | 16.68590 | 38071 ft | 419 kts | 291° |
| 2026-05-04 10:12 | 47.60618 | 16.60599 | 38077 ft | 419 kts | 291° |
| 2026-05-04 10:12 | 47.62729 | 16.52553 | 38082 ft | 419 kts | 291° |
| 2026-05-04 10:13 | 47.64839 | 16.44515 | 38070 ft | 418 kts | 291° |
| 2026-05-04 10:13 | 47.66943 | 16.36463 | 38066 ft | 419 kts | 291° |
| 2026-05-04 10:14 | 47.69022 | 16.28458 | 38046 ft | 419 kts | 291° |
| 2026-05-04 10:16 | 47.77338 | 15.96120 | 38040 ft | 421 kts | 290° |
| 2026-05-04 10:16 | 47.79414 | 15.87984 | 38042 ft | 421 kts | 290° |
| 2026-05-04 10:17 | 47.81485 | 15.79838 | 38056 ft | 421 kts | 290° |
| 2026-05-04 10:19 | 47.89681 | 15.47343 | 38059 ft | 419 kts | 290° |
| 2026-05-04 10:19 | 47.91713 | 15.39205 | 38051 ft | 419 kts | 289° |
| 2026-05-04 10:20 | 47.93733 | 15.31072 | 38055 ft | 418 kts | 289° |
| 2026-05-04 10:20 | 47.95730 | 15.22991 | 38052 ft | 418 kts | 289° |
| 2026-05-04 10:21 | 47.97736 | 15.14860 | 38050 ft | 417 kts | 289° |
| 2026-05-04 10:21 | 47.99741 | 15.06730 | 38050 ft | 417 kts | 289° |
| 2026-05-04 10:22 | 48.02734 | 14.94525 | 38036 ft | 417 kts | 288° |
| 2026-05-04 10:23 | 48.04673 | 14.86351 | 38035 ft | 417 kts | 284° |
| 2026-05-04 10:25 | 48.04838 | 14.53493 | 38041 ft | 415 kts | 268° |
| 2026-05-04 10:25 | 48.04632 | 14.43489 | 38042 ft | 414 kts | 268° |
| 2026-05-04 10:26 | 48.04443 | 14.34887 | 38041 ft | 414 kts | 268° |
| 2026-05-04 10:26 | 48.04249 | 14.26285 | 38039 ft | 414 kts | 267° |
| 2026-05-04 10:27 | 48.04077 | 14.19141 | 38039 ft | 414 kts | 267° |
| 2026-05-04 10:27 | 48.03836 | 14.09148 | 38041 ft | 414 kts | 267° |
| 2026-05-04 10:28 | 48.03621 | 14.00545 | 38041 ft | 414 kts | 267° |
| 2026-05-04 10:28 | 48.03436 | 13.93398 | 38040 ft | 414 kts | 267° |
| 2026-05-04 10:29 | 48.03211 | 13.84791 | 38039 ft | 414 kts | 267° |
| 2026-05-04 10:29 | 48.02983 | 13.76183 | 38039 ft | 415 kts | 267° |
| 2026-05-04 10:30 | 48.02741 | 13.67578 | 38035 ft | 415 kts | 266° |
| 2026-05-04 10:30 | 48.02494 | 13.58969 | 38032 ft | 415 kts | 266° |
| 2026-05-04 10:31 | 48.02241 | 13.50414 | 38032 ft | 415 kts | 266° |
| 2026-05-04 10:32 | 48.01312 | 13.20315 | 38026 ft | 416 kts | 266° |
| 2026-05-04 10:33 | 48.01025 | 13.11678 | 38020 ft | 416 kts | 266° |
| 2026-05-04 10:33 | 48.00732 | 13.03040 | 38020 ft | 417 kts | 266° |
| 2026-05-04 10:34 | 48.00432 | 12.94395 | 38021 ft | 417 kts | 266° |
| 2026-05-04 10:34 | 48.00855 | 12.85774 | 38020 ft | 419 kts | 282° |
| 2026-05-04 10:35 | 48.02291 | 12.77384 | 38025 ft | 420 kts | 282° |
| 2026-05-04 10:35 | 48.03716 | 12.68909 | 38018 ft | 421 kts | 282° |
| 2026-05-04 10:36 | 48.05126 | 12.60422 | 38015 ft | 421 kts | 282° |
| 2026-05-04 10:36 | 48.06802 | 12.52022 | 38017 ft | 423 kts | 287° |
| 2026-05-04 10:37 | 48.08772 | 12.43736 | 38019 ft | 423 kts | 287° |
| 2026-05-04 10:37 | 48.10713 | 12.35490 | 38019 ft | 423 kts | 287° |
| 2026-05-04 10:39 | 48.16178 | 12.10410 | 38030 ft | 420 kts | 275° |
| 2026-05-04 10:39 | 48.16473 | 12.06064 | 38030 ft | 420 kts | 274° |
| 2026-05-04 10:40 | 48.17029 | 11.97418 | 38034 ft | 420 kts | 274° |
| 2026-05-04 10:40 | 48.17310 | 11.93060 | 37804 ft | 420 kts | 274° |
| 2026-05-04 10:40 | 48.17588 | 11.88707 | 37526 ft | 420 kts | 274° |
| 2026-05-04 10:40 | 48.17862 | 11.84359 | 37253 ft | 419 kts | 274° |
| 2026-05-04 10:41 | 48.18300 | 11.80038 | 36980 ft | 421 kts | 281° |
| 2026-05-04 10:41 | 48.19009 | 11.75780 | 36716 ft | 421 kts | 282° |
| 2026-05-04 10:41 | 48.19723 | 11.71526 | 36443 ft | 421 kts | 282° |
| 2026-05-04 10:41 | 48.20433 | 11.67266 | 36186 ft | 421 kts | 282° |
| 2026-05-04 10:42 | 48.21142 | 11.63011 | 35928 ft | 421 kts | 282° |
| 2026-05-04 10:42 | 48.21839 | 11.58814 | 35693 ft | 421 kts | 281° |
| 2026-05-04 10:42 | 48.22539 | 11.54557 | 35388 ft | 420 kts | 281° |
| 2026-05-04 10:42 | 48.23239 | 11.50272 | 34562 ft | 426 kts | 281° |
| 2026-05-04 10:43 | 48.23944 | 11.45924 | 33619 ft | 432 kts | 281° |
| 2026-05-04 10:44 | 48.34432 | 11.18696 | 28252 ft | 436 kts | 311° |
| 2026-05-04 10:45 | 48.36534 | 11.15438 | 27646 ft | 432 kts | 311° |
| 2026-05-04 10:45 | 48.38617 | 11.12209 | 27052 ft | 428 kts | 311° |
| 2026-05-04 10:45 | 48.40677 | 11.09009 | 26461 ft | 424 kts | 311° |
| 2026-05-04 10:45 | 48.42718 | 11.05833 | 25883 ft | 421 kts | 311° |
| 2026-05-04 10:46 | 48.44744 | 11.02679 | 25308 ft | 417 kts | 311° |
| 2026-05-04 10:46 | 48.46751 | 10.99543 | 24738 ft | 414 kts | 311° |
| 2026-05-04 10:46 | 48.48714 | 10.96468 | 24208 ft | 411 kts | 311° |
| 2026-05-04 10:46 | 48.50689 | 10.93371 | 23688 ft | 409 kts | 311° |
| 2026-05-04 10:47 | 48.52642 | 10.90278 | 23136 ft | 405 kts | 310° |
| 2026-05-04 10:47 | 48.54563 | 10.87208 | 22657 ft | 400 kts | 310° |
| 2026-05-04 10:47 | 48.56456 | 10.84159 | 22172 ft | 396 kts | 310° |
| 2026-05-04 10:47 | 48.58329 | 10.81135 | 21706 ft | 392 kts | 310° |
| 2026-05-04 10:49 | 48.70834 | 10.60745 | 18364 ft | 365 kts | 298° |
| 2026-05-04 10:49 | 48.71930 | 10.57364 | 17821 ft | 359 kts | 287° |
| 2026-05-04 10:50 | 48.72538 | 10.53713 | 17323 ft | 351 kts | 275° |
| 2026-05-04 10:51 | 48.70939 | 10.29093 | 13992 ft | 330 kts | 260° |
| 2026-05-04 10:52 | 48.70651 | 10.25654 | 13491 ft | 328 kts | 260° |
| 2026-05-04 10:52 | 48.70364 | 10.22241 | 13011 ft | 326 kts | 260° |
| 2026-05-04 10:52 | 48.70078 | 10.18851 | 12551 ft | 323 kts | 260° |
| 2026-05-04 10:54 | 48.70383 | 9.95992 | 10140 ft | 295 kts | 277° |
| 2026-05-04 10:54 | 48.70742 | 9.92965 | 10063 ft | 291 kts | 277° |
| 2026-05-04 10:56 | 48.73193 | 9.72036 | 6862 ft | 281 kts | 278° |
| 2026-05-04 10:56 | 48.73532 | 9.69126 | 6279 ft | 280 kts | 278° |
| 2026-05-04 10:56 | 48.73869 | 9.66240 | 5741 ft | 277 kts | 279° |
| 2026-05-04 10:57 | 48.74200 | 9.63428 | 5615 ft | 265 kts | 278° |
| 2026-05-04 10:57 | 48.74519 | 9.60739 | 5551 ft | 254 kts | 279° |
| 2026-05-04 10:57 | 48.74819 | 9.58197 | 5461 ft | 244 kts | 279° |
| 2026-05-04 10:57 | 48.75076 | 9.55702 | 5288 ft | 236 kts | 271° |
| 2026-05-04 10:58 | 48.74856 | 9.53284 | 5020 ft | 231 kts | 254° |
| 2026-05-04 10:58 | 48.74407 | 9.50967 | 4731 ft | 227 kts | 252° |
| 2026-05-04 10:58 | 48.73968 | 9.48695 | 4426 ft | 223 kts | 252° |
| 2026-05-04 10:58 | 48.73544 | 9.46438 | 4117 ft | 222 kts | 253° |
| 2026-05-04 10:59 | 48.73125 | 9.44198 | 3829 ft | 221 kts | 254° |
| 2026-05-04 10:59 | 48.72708 | 9.41973 | 3537 ft | 218 kts | 254° |
| 2026-05-04 10:59 | 48.72299 | 9.39786 | 3254 ft | 213 kts | 254° |
| 2026-05-04 10:59 | 48.71897 | 9.37642 | 2977 ft | 211 kts | 255° |
| 2026-05-04 11:00 | 48.71503 | 9.35545 | 2701 ft | 209 kts | 255° |
| 2026-05-04 11:01 | 48.69078 | 9.22672 | 1223 ft | 133 kts | 254° |
| 2026-05-04 11:02 | 48.68951 | 9.21973 | 1245 ft | 36 kts | 259° |
| 2026-05-04 11:02 | 48.68946 | 9.21737 | 1247 ft | 13 kts | 277° |
| 2026-05-04 11:05 | 48.68969 | 9.20721 | 1278 ft | 13 kts | 254° |
| 2026-05-04 11:06 | 48.68943 | 9.20587 | 1282 ft | 14 kts | 253° |
| 2026-05-04 11:06 | 48.68918 | 9.20448 | 1285 ft | 14 kts | 255° |
| 2026-05-04 11:06 | 48.68891 | 9.20307 | 1288 ft | 14 kts | 253° |
| 2026-05-04 11:06 | 48.68865 | 9.20166 | 1292 ft | 14 kts | 255° |
| 2026-05-04 11:08 | 48.68863 | 9.19676 | 1308 ft | 7 kts | 253° |
| 2026-05-04 11:10 | 48.68939 | 9.19721 | 1311 ft | 2 kts | 345° |
| 2026-05-04 11:12 | 48.68954 | 9.19714 | 1312 ft | 0 kts | 344° |